Time;durP1;ratioP1;P1;durP2;ratioP2;P2;SDS_P1;SDS_P2;PMS_P1;PMS_P2;Temp;Humidity;BMP_temperature;BMP_pressure;BME280_temperature;BME280_humidity;BME280_pressure;Samples;Min_cycle;Max_cycle;Signal;HPM_P1;HPM_P2
2023/03/15 00:03:53;;;;;;;11.97;2.87;;;;;;;2.22;100.00;99520.95;5044630;56;1136664;-70
2023/03/15 00:09:00;;;;;;;14.38;3.20;;;;;;;2.23;100.00;99529.63;5034054;56;1136751;-68
2023/03/15 00:14:06;;;;;;;10.45;2.90;;;;;;;2.22;100.00;99542.29;5053594;56;1136849;-70
2023/03/15 00:19:12;;;;;;;9.80;2.67;;;;;;;2.17;100.00;99545.16;5073616;56;1136777;-74
2023/03/15 00:24:18;;;;;;;9.73;2.95;;;;;;;2.17;100.00;99563.88;5118224;56;1134985;-70
2023/03/15 00:29:25;;;;;;;11.03;3.13;;;;;;;2.10;100.00;99563.41;5137974;56;1134721;-67
2023/03/15 00:34:33;;;;;;;9.10;3.30;;;;;;;2.10;100.00;99575.99;5117380;56;1136665;-72
2023/03/15 00:39:39;;;;;;;9.33;2.80;;;;;;;2.11;100.00;99593.78;5117525;56;1134612;-72
2023/03/15 00:44:46;;;;;;;5.53;2.07;;;;;;;2.11;100.00;99593.78;5080217;56;1134605;-73
2023/03/15 00:49:52;;;;;;;8.77;3.03;;;;;;;2.12;100.00;99599.38;5033789;56;1134572;-70
2023/03/15 00:54:59;;;;;;;5.87;2.17;;;;;;;2.10;100.00;99601.23;5034274;56;1134493;-67
2023/03/15 01:00:07;;;;;;;4.27;2.27;;;;;;;2.11;100.00;99612.05;5089482;56;1134750;-65
2023/03/15 01:05:13;;;;;;;14.47;2.30;;;;;;;2.10;100.00;99609.90;5017983;56;1134650;-70
2023/03/15 01:10:20;;;;;;;5.00;1.87;;;;;;;2.09;100.00;99621.72;5014352;56;1136810;-64
2023/03/15 01:15:26;;;;;;;6.67;2.13;;;;;;;2.06;100.00;99638.38;5033687;57;1134558;-63
2023/03/15 01:20:31;;;;;;;13.60;3.47;;;;;;;1.99;100.00;99640.94;5086000;56;1134540;-69
2023/03/15 01:25:37;;;;;;;12.20;1.90;;;;;;;1.95;100.00;99652.95;5096774;56;1136650;-69
2023/03/15 01:30:51;;;;;;;12.55;2.62;;;;;;;1.94;100.00;99659.94;5117209;56;1136814;-70
2023/03/15 01:36:06;;;;;;;7.40;1.87;;;;;;;1.92;100.00;99680.03;5096922;56;1136818;-68
2023/03/15 01:41:14;;;;;;;17.23;2.17;;;;;;;1.87;100.00;99691.63;5036699;56;1134782;-70
2023/03/15 01:46:27;;;;;;;10.98;2.12;;;;;;;1.82;100.00;99705.41;5013924;57;1136736;-65
2023/03/15 01:51:48;;;;;;;10.23;1.70;;;;;;;1.76;100.00;99703.96;5062834;56;1136765;-69
2023/03/15 01:57:02;;;;;;;15.73;2.03;;;;;;;1.73;100.00;99722.37;5067779;56;1136641;-69
2023/03/15 02:02:13;;;;;;;13.23;2.13;;;;;;;1.69;100.00;99733.87;5043936;56;1136699;-70
2023/03/15 02:07:18;;;;;;;10.43;2.00;;;;;;;1.63;100.00;99749.86;5013740;56;1136845;-70
2023/03/15 02:12:25;;;;;;;12.07;2.13;;;;;;;1.58;100.00;99755.31;5033297;55;1136778;-69
2023/03/15 02:17:42;;;;;;;7.10;2.13;;;;;;;1.55;100.00;99768.49;5027544;56;1136726;-70
2023/03/15 02:23:03;;;;;;;9.07;2.33;;;;;;;1.52;100.00;99773.05;5091654;56;1134702;-69
2023/03/15 02:28:13;;;;;;;8.88;1.70;;;;;;;1.50;100.00;99777.03;5117193;56;1134708;-71
2023/03/15 02:33:27;;;;;;;13.53;2.20;;;;;;;1.46;100.00;99792.89;5097428;56;1134561;-64
2023/03/15 02:38:33;;;;;;;9.63;1.80;;;;;;;1.39;100.00;99792.36;5019205;56;1136883;-67
2023/03/15 02:43:39;;;;;;;13.40;2.10;;;;;;;1.32;100.00;99791.84;5032951;57;1134568;-67
2023/03/15 02:48:47;;;;;;;17.47;1.93;;;;;;;1.21;100.00;99794.17;5013597;57;1136652;-67
2023/03/15 02:53:54;;;;;;;14.58;3.42;;;;;;;1.20;100.00;99814.62;5086638;56;1136585;-65
2023/03/15 02:59:00;;;;;;;9.25;3.98;;;;;;;1.20;100.00;99816.38;5102104;56;1136528;-65
2023/03/15 03:04:06;;;;;;;6.80;1.67;;;;;;;1.14;100.00;99810.16;5097390;56;1134785;-69
2023/03/15 03:09:12;;;;;;;17.13;3.67;;;;;;;1.18;100.00;99829.94;5113380;56;1134500;-66
2023/03/15 03:14:22;;;;;;;10.33;1.80;;;;;;;1.20;100.00;99846.33;5117422;56;1136673;-71
2023/03/15 03:19:28;;;;;;;11.00;1.80;;;;;;;1.18;100.00;99851.61;5098487;56;1136861;-67
2023/03/15 03:24:35;;;;;;;7.37;1.37;;;;;;;1.14;100.00;99868.77;5117266;56;1136838;-66
2023/03/15 03:29:41;;;;;;;14.40;2.77;;;;;;;1.15;100.00;99869.14;5118001;56;1134736;-71
2023/03/15 03:34:48;;;;;;;13.30;2.13;;;;;;;1.13;100.00;99878.79;5058432;56;1136591;-70
2023/03/15 03:39:56;;;;;;;10.90;2.73;;;;;;;1.13;100.00;99894.41;5033566;56;1136635;-68
2023/03/15 03:45:02;;;;;;;10.45;2.80;;;;;;;1.09;100.00;99901.52;5034075;56;1136701;-69
2023/03/15 03:50:11;;;;;;;16.43;2.87;;;;;;;1.05;100.00;99904.77;5071250;56;1136919;-65
2023/03/15 03:55:17;;;;;;;11.93;2.60;;;;;;;1.04;100.00;99909.58;5097827;56;1136698;-70
2023/03/15 04:00:23;;;;;;;9.08;1.80;;;;;;;1.04;100.00;99913.95;5091836;56;1136944;-67
2023/03/15 04:05:30;;;;;;;11.57;2.23;;;;;;;1.00;100.00;99927.56;5053745;56;1134637;-68
2023/03/15 04:10:35;;;;;;;7.33;1.73;;;;;;;0.95;100.00;99939.95;5033633;56;1136654;-67
2023/03/15 04:15:41;;;;;;;13.33;3.60;;;;;;;0.88;100.00;99945.53;5033986;56;1134419;-67
2023/03/15 04:20:48;;;;;;;11.37;2.10;;;;;;;0.86;100.00;99954.71;5130702;55;1136678;-67
2023/03/15 04:25:56;;;;;;;6.70;1.63;;;;;;;0.84;100.00;99968.25;5118113;56;1136744;-70
2023/03/15 04:31:19;;;;;;;8.87;1.60;;;;;;;0.83;100.00;99978.73;5034160;56;1134639;-70
2023/03/15 04:36:27;;;;;;;15.13;2.10;;;;;;;0.75;100.00;99989.52;5001479;56;1134812;-72
2023/03/15 04:41:46;;;;;;;9.83;2.13;;;;;;;0.71;100.00;99993.16;5050076;56;1136775;-69
2023/03/15 04:46:59;;;;;;;11.73;1.27;;;;;;;0.69;100.00;99991.08;5032896;56;1134566;-66
2023/03/15 04:52:13;;;;;;;8.28;2.10;;;;;;;0.65;100.00;100009.04;5075066;56;1136807;-65
2023/03/15 04:57:26;;;;;;;5.05;1.82;;;;;;;0.63;100.00;100017.37;5095702;56;1136853;-71
2023/03/15 05:02:40;;;;;;;12.90;2.10;;;;;;;0.65;100.00;100020.75;5038939;56;1136771;-69
2023/03/15 05:07:47;;;;;;;8.13;1.87;;;;;;;0.68;100.00;100033.17;5033344;55;1138969;-65
2023/03/15 05:13:12;;;;;;;8.40;1.85;;;;;;;0.69;100.00;100036.63;5033856;55;1136687;-67
2023/03/15 05:18:38;;;;;;;8.90;1.67;;;;;;;0.68;100.00;100042.28;4838357;58;1136825;-70
2023/03/15 05:24:03;;;;;;;7.50;1.98;;;;;;;0.70;100.00;100050.87;4959911;56;1136767;-70
2023/03/15 05:29:14;;;;;;;13.43;2.25;;;;;;;0.70;100.00;100058.68;5013016;57;1136563;-71
2023/03/15 05:34:36;;;;;;;9.43;1.92;;;;;;;0.71;100.00;100066.03;5063784;56;1138817;-74
2023/03/15 05:39:54;;;;;;;3.50;1.03;;;;;;;0.74;100.00;100068.50;4991167;56;1136859;-69
2023/03/15 05:45:09;;;;;;;9.77;1.57;;;;;;;0.77;100.00;100069.64;5066916;56;1136791;-68
2023/03/15 05:50:23;;;;;;;10.40;2.50;;;;;;;0.75;100.00;100077.16;4960648;57;1136816;-73
2023/03/15 05:55:35;;;;;;;15.47;1.77;;;;;;;0.74;100.00;100079.37;4917645;57;1138920;-71
2023/03/15 06:00:45;;;;;;;16.70;2.53;;;;;;;0.73;100.00;100094.14;5016990;57;1138749;-69
2023/03/15 06:05:52;;;;;;;8.33;1.47;;;;;;;0.75;100.00;100105.78;4992761;57;1138791;-72
2023/03/15 06:11:01;;;;;;;12.87;2.27;;;;;;;0.74;100.00;100108.84;5017526;57;1136730;-75
2023/03/15 06:16:09;;;;;;;21.48;3.05;;;;;;;0.79;100.00;100112.52;5018505;57;1138820;-73
2023/03/15 06:21:16;;;;;;;8.87;1.87;;;;;;;0.83;100.00;100126.65;4954570;57;1139006;-69
2023/03/15 06:26:22;;;;;;;6.87;2.70;;;;;;;0.85;100.00;100127.89;4993779;57;1136898;-71
2023/03/15 06:31:30;;;;;;;16.00;2.47;;;;;;;0.84;100.00;100137.91;5038046;56;1136526;-69
2023/03/15 06:36:37;;;;;;;6.37;1.83;;;;;;;0.85;100.00;100152.16;5061020;56;1138901;-68
2023/03/15 06:41:44;;;;;;;8.13;2.10;;;;;;;0.87;100.00;100161.20;4947722;57;1136784;-65
2023/03/15 06:46:51;;;;;;;11.37;2.50;;;;;;;0.86;100.00;100168.17;5014614;57;1136776;-71
2023/03/15 06:51:58;;;;;;;9.23;1.95;;;;;;;0.87;100.00;100182.03;4956913;57;1138754;-73
2023/03/15 06:57:04;;;;;;;10.70;3.05;;;;;;;0.89;100.00;100190.63;4913625;57;1136857;-68
2023/03/15 07:02:17;;;;;;;7.63;2.60;;;;;;;0.95;100.00;100200.30;4972686;57;1138753;-73
2023/03/15 07:07:23;;;;;;;21.23;4.58;;;;;;;1.05;100.00;100218.55;5000527;57;1136575;-69
2023/03/15 07:12:29;;;;;;;14.57;2.63;;;;;;;1.16;100.00;100227.64;4917278;57;1138927;-69
2023/03/15 07:17:35;;;;;;;15.13;2.70;;;;;;;1.26;100.00;100232.83;4997144;57;1139156;-72
2023/03/15 07:22:44;;;;;;;14.00;3.07;;;;;;;1.31;100.00;100245.20;4992712;57;1138828;-73
2023/03/15 07:27:48;;;;;;;12.93;2.13;;;;;;;1.35;100.00;100242.86;5012929;56;1138742;-71
2023/03/15 07:32:54;;;;;;;11.13;2.40;;;;;;;1.36;100.00;100245.86;5060323;56;1138752;-74
2023/03/15 07:38:00;;;;;;;4.53;1.83;;;;;;;1.49;100.00;100243.55;5063217;56;1138732;-69
2023/03/15 07:43:06;;;;;;;12.05;2.60;;;;;;;1.78;100.00;100240.46;5063178;56;1136664;-74
2023/03/15 07:48:14;;;;;;;8.58;1.66;;;;;;;2.04;100.00;100246.61;5078905;56;1139037;-67
2023/03/15 07:53:19;;;;;;;14.87;4.43;;;;;;;2.30;100.00;100242.75;5000001;57;1136738;-67
2023/03/15 07:58:25;;;;;;;12.73;3.30;;;;;;;2.48;100.00;100244.94;4979888;57;1139031;-68
2023/03/15 08:03:31;;;;;;;18.17;4.00;;;;;;;2.72;100.00;100255.96;4979109;58;1138852;-70
2023/03/15 08:08:37;;;;;;;8.57;2.60;;;;;;;2.84;100.00;100255.34;4999415;57;1138758;-70
2023/03/15 08:13:43;;;;;;;11.50;2.77;;;;;;;2.95;100.00;100266.55;4988624;57;1136603;-87
2023/03/15 08:18:48;;;;;;;9.37;3.10;;;;;;;2.95;100.00;100280.45;5001686;57;1139195;-79
2023/03/15 08:23:54;;;;;;;14.07;4.90;;;;;;;2.97;100.00;100281.69;4989145;57;1136816;-79
2023/03/15 08:29:00;;;;;;;11.53;3.45;;;;;;;3.15;100.00;100285.54;5085849;56;1138721;-78
2023/03/15 08:34:06;;;;;;;12.40;2.50;;;;;;;3.35;100.00;100297.59;5078329;56;1138797;-80
2023/03/15 08:39:11;;;;;;;9.58;2.60;;;;;;;3.38;100.00;100297.41;4975390;56;1138873;-82
2023/03/15 08:44:18;;;;;;;18.35;7.37;;;;;;;3.42;100.00;100312.02;4914409;57;1136756;-78
2023/03/15 08:49:24;;;;;;;21.30;6.60;;;;;;;3.49;100.00;100320.41;5011661;57;1138900;-86
2023/03/15 08:54:30;;;;;;;10.37;2.87;;;;;;;3.70;100.00;100322.34;5026599;56;1138833;-79
2023/03/15 08:59:36;;;;;;;15.83;2.33;;;;;;;3.70;100.00;100332.35;5000385;57;1138923;-81
2023/03/15 09:04:41;;;;;;;12.40;2.60;;;;;;;3.69;100.00;100343.73;5000612;56;1138772;-81
2023/03/15 09:09:47;;;;;;;8.63;2.47;;;;;;;3.70;100.00;100344.58;5015440;57;1138915;-73
2023/03/15 09:14:53;;;;;;;14.77;3.00;;;;;;;3.73;100.00;100353.12;4935224;57;1136606;-87
2023/03/15 09:19:59;;;;;;;13.47;2.20;;;;;;;3.67;100.00;100361.73;4969965;57;1138928;-78
2023/03/15 09:25:05;;;;;;;10.87;2.20;;;;;;;3.65;100.00;100363.61;5038156;57;1138740;-81
2023/03/15 09:30:13;;;;;;;4.83;1.97;;;;;;;3.65;100.00;100364.45;4999893;57;1138837;-80
2023/03/15 09:35:21;;;;;;;14.00;3.00;;;;;;;3.84;100.00;100380.86;5000542;57;1136736;-85
2023/03/15 09:40:33;;;;;;;12.23;2.15;;;;;;;3.97;100.00;100379.78;5066352;56;1139012;-81
2023/03/15 09:46:06;;;;;;;;;;;;;;;3.88;100.00;100377.63;5105675;56;1138814;-85
2023/03/15 09:51:40;;;;;;;9.10;2.65;;;;;;;3.95;100.00;100397.33;5061390;56;974042;-82
2023/03/15 09:56:58;;;;;;;5.35;1.95;;;;;;;4.02;100.00;100398.69;4999728;57;1134503;-83
2023/03/15 10:02:27;;;;;;;6.47;2.00;;;;;;;3.96;100.00;100403.41;5023249;56;1136586;-84
2023/03/15 10:07:33;;;;;;;15.43;2.37;;;;;;;3.83;100.00;100418.41;5015941;57;1136805;-73
2023/03/15 10:12:42;;;;;;;16.90;3.70;;;;;;;3.75;100.00;100414.05;5009751;56;1138812;-83
2023/03/15 10:18:11;;;;;;;11.70;2.63;;;;;;;3.96;100.00;100418.66;5014478;55;1138818;-80
2023/03/15 10:23:22;;;;;;;17.27;2.85;;;;;;;4.27;100.00;100410.50;5013975;56;1139003;-84
2023/03/15 10:28:31;;;;;;;8.60;2.40;;;;;;;4.41;100.00;100418.45;4976480;56;1138858;-77
2023/03/15 10:33:40;;;;;;;27.97;4.17;;;;;;;4.50;100.00;100420.09;4968247;57;1137012;-80
2023/03/15 10:38:47;;;;;;;12.33;3.57;;;;;;;4.56;100.00;100421.09;4967279;57;1138684;-81
2023/03/15 10:44:05;;;;;;;14.90;2.30;;;;;;;4.86;100.00;100415.94;5017427;56;1138794;-84
2023/03/15 10:49:16;;;;;;;4.70;1.40;;;;;;;5.04;100.00;100421.90;5063786;56;1138799;-83
2023/03/15 10:54:24;;;;;;;20.85;2.40;;;;;;;5.01;100.00;100423.41;5044167;56;1136915;-79
2023/03/15 10:59:33;;;;;;;6.77;1.87;;;;;;;4.92;100.00;100424.75;5040612;56;1138957;-82
2023/03/15 11:04:45;;;;;;;11.68;2.42;;;;;;;4.76;100.00;100428.30;5056735;55;1137177;-79
2023/03/15 11:10:00;;;;;;;6.20;1.30;;;;;;;4.71;100.00;100431.66;5062983;55;1138753;-81
2023/03/15 11:15:15;;;;;;;6.73;2.07;;;;;;;4.68;100.00;100444.45;5037235;56;1136849;-77
2023/03/15 11:20:34;;;;;;;11.15;2.45;;;;;;;4.55;100.00;100448.20;5017356;56;1136938;-81
2023/03/15 11:25:40;;;;;;;36.83;26.68;;;;;;;4.54;100.00;100449.13;4894203;57;1138729;-81
2023/03/15 11:30:49;;;;;;;21.93;9.80;;;;;;;4.68;100.00;100450.16;4942821;57;1140917;-84
2023/03/15 11:35:58;;;;;;;19.03;9.27;;;;;;;4.76;100.00;100445.33;5051181;55;1139161;-88
2023/03/15 11:41:17;;;;;;;12.20;5.57;;;;;;;4.84;100.00;100449.70;5068670;55;1138770;-81
2023/03/15 11:46:33;;;;;;;20.40;8.83;;;;;;;4.81;100.00;100447.24;5101263;56;1138770;-80
2023/03/15 11:51:40;;;;;;;33.73;10.33;;;;;;;4.73;100.00;100455.54;5029124;56;1138593;-83
2023/03/15 11:56:59;;;;;;;21.93;8.53;;;;;;;4.40;100.00;100460.81;5069243;56;1140879;-85
2023/03/15 12:02:15;;;;;;;10.50;2.83;;;;;;;4.28;100.00;100461.43;4953985;57;1138806;-85
2023/03/15 12:07:30;;;;;;;12.05;2.02;;;;;;;4.27;100.00;100458.46;4869369;58;1138737;-88
2023/03/15 12:12:43;;;;;;;5.30;1.70;;;;;;;4.48;100.00;100452.53;5024608;56;1138695;-75
2023/03/15 12:17:59;;;;;;;9.80;1.80;;;;;;;4.81;100.00;100439.38;5033928;55;1136685;-78
2023/03/15 12:23:24;;;;;;;20.10;1.57;;;;;;;5.00;100.00;100443.15;5057424;55;1168133;-84
2023/03/15 12:28:44;;;;;;;8.53;1.42;;;;;;;5.27;100.00;100453.39;5056628;56;1138861;-81
2023/03/15 12:34:00;;;;;;;10.93;1.63;;;;;;;5.56;100.00;100453.87;5103018;56;1136664;-79
2023/03/15 12:39:21;;;;;;;12.23;4.70;;;;;;;5.86;100.00;100447.76;5101329;56;1138852;-83
2023/03/15 12:44:38;;;;;;;10.20;3.03;;;;;;;6.05;100.00;100452.80;5065474;55;1138751;-75
2023/03/15 12:49:46;;;;;;;5.00;2.33;;;;;;;5.89;100.00;100470.77;5066718;56;1138843;-75
2023/03/15 12:55:05;;;;;;;5.40;2.12;;;;;;;5.13;100.00;100499.20;5063732;56;1136734;-80
2023/03/15 13:00:26;;;;;;;3.13;0.93;;;;;;;4.41;100.00;100503.55;4921594;57;1136681;-82
2023/03/15 13:05:57;;;;;;;3.77;1.70;;;;;;;3.89;100.00;100505.75;5072798;56;1136695;-85
2023/03/15 13:11:38;;;;;;;2.03;1.10;;;;;;;3.67;100.00;100501.19;5080504;56;1136659;-74
2023/03/15 13:16:58;;;;;;;2.87;0.63;;;;;;;3.90;100.00;100500.06;5081386;56;1136685;-77
2023/03/15 13:22:14;;;;;;;1.22;0.80;;;;;;;4.47;100.00;100505.83;5114705;56;1136759;-76
2023/03/15 13:27:33;;;;;;;5.03;1.33;;;;;;;4.98;100.00;100505.28;5056203;56;1136930;-79
2023/03/15 13:32:40;;;;;;;2.97;1.40;;;;;;;5.23;100.00;100505.61;5108898;55;1136908;-84
2023/03/15 13:37:45;;;;;;;7.80;3.63;;;;;;;5.21;100.00;100513.56;5068367;55;1137768;-83
2023/03/15 13:42:51;;;;;;;5.70;2.03;;;;;;;5.16;100.00;100516.92;5012026;57;1137296;-83
2023/03/15 13:47:57;;;;;;;15.32;4.87;;;;;;;5.08;100.00;100524.34;5029377;55;1227408;-82
2023/03/15 13:53:03;;;;;;;5.07;2.00;;;;;;;5.08;100.00;100525.66;5063707;56;1138885;-84
2023/03/15 13:58:10;;;;;;;26.50;13.87;;;;;;;5.08;100.00;100532.67;5000983;57;1136817;-83
2023/03/15 14:03:26;;;;;;;7.70;2.10;;;;;;;5.01;100.00;100533.48;4991931;56;1140898;-87
2023/03/15 14:08:32;;;;;;;1.97;1.10;;;;;;;5.26;100.00;100536.45;5112504;56;1137057;-86
2023/03/15 14:14:01;;;;;;;5.70;1.50;;;;;;;5.40;100.00;100542.23;5085629;56;1136859;-83
2023/03/15 14:19:32;;;;;;;7.67;2.55;;;;;;;5.38;100.00;100545.41;4867424;57;1136703;-84
2023/03/15 14:24:41;;;;;;;6.90;2.23;;;;;;;5.73;100.00;100549.98;4918240;57;1137161;-88
2023/03/15 14:29:50;;;;;;;12.70;3.23;;;;;;;5.73;100.00;100549.98;5088139;55;1136615;-82
2023/03/15 14:35:20;;;;;;;16.37;5.27;;;;;;;5.93;100.00;100544.48;5088524;55;1138815;-80
2023/03/15 14:40:39;;;;;;;7.13;2.23;;;;;;;6.14;100.00;100543.67;5041189;56;1138999;-76
2023/03/15 14:45:43;;;;;;;7.50;2.33;;;;;;;6.21;100.00;100544.16;4996664;55;1137123;-71
2023/03/15 14:50:49;;;;;;;10.83;3.87;;;;;;;6.19;100.00;100544.72;5114606;55;1136747;-79
2023/03/15 14:55:55;;;;;;;12.70;4.10;;;;;;;6.22;100.00;100545.39;5085811;56;1138731;-79
2023/03/15 15:01:03;;;;;;;9.87;3.20;;;;;;;6.18;100.00;100552.22;5110186;56;1138811;-80
2023/03/15 15:06:13;;;;;;;6.95;1.70;;;;;;;6.26;100.00;100552.63;5129967;56;1137136;-80
2023/03/15 15:11:19;;;;;;;4.05;2.47;;;;;;;6.33;100.00;100559.19;5087663;56;1136856;-78
2023/03/15 15:16:25;;;;;;;4.43;1.53;;;;;;;6.44;100.00;100562.48;5073534;56;1136869;-77
2023/03/15 15:21:32;;;;;;;5.03;1.70;;;;;;;6.44;100.00;100574.30;5161294;55;1136824;-78
2023/03/15 15:26:38;;;;;;;4.05;1.85;;;;;;;6.41;100.00;100579.30;5060502;56;1136561;-75
2023/03/15 15:31:45;;;;;;;5.93;2.70;;;;;;;6.52;100.00;100586.06;5085731;56;1136899;-74
2023/03/15 15:36:52;;;;;;;3.60;2.00;;;;;;;6.60;100.00;100588.22;5132591;56;1136687;-77
2023/03/15 15:41:59;;;;;;;6.23;2.07;;;;;;;6.52;100.00;100595.73;5086447;56;1136905;-77
2023/03/15 15:47:05;;;;;;;8.03;2.10;;;;;;;6.47;100.00;100602.56;5085350;56;1136900;-75
2023/03/15 15:52:12;;;;;;;14.10;5.97;;;;;;;6.45;100.00;100603.12;5101976;56;1136623;-77
2023/03/15 15:57:25;;;;;;;7.77;3.57;;;;;;;6.48;100.00;100612.61;5083035;56;1138843;-76
2023/03/15 16:02:30;;;;;;;6.33;2.63;;;;;;;6.55;100.00;100610.85;5087084;56;1136936;-79
2023/03/15 16:07:38;;;;;;;16.03;3.80;;;;;;;6.97;100.00;100620.55;5099204;56;1136757;-76
2023/03/15 16:12:44;;;;;;;6.37;2.00;;;;;;;7.67;100.00;100614.82;5088195;56;1138776;-81
2023/03/15 16:17:51;;;;;;;12.73;3.47;;;;;;;7.76;99.27;100620.83;5094620;56;1137228;-73
2023/03/15 16:23:00;;;;;;;4.47;2.27;;;;;;;7.25;99.86;100635.48;5182321;55;1137225;-76
2023/03/15 16:28:06;;;;;;;11.27;4.90;;;;;;;6.78;100.00;100640.16;4948843;57;1134771;-77
2023/03/15 16:33:19;;;;;;;8.75;3.67;;;;;;;6.35;100.00;100649.26;5029662;56;1138779;-78
2023/03/15 16:38:28;;;;;;;9.43;4.12;;;;;;;6.02;100.00;100657.75;5005277;57;1136901;-77
2023/03/15 16:43:34;;;;;;;20.93;9.73;;;;;;;5.76;100.00;100668.37;5051924;56;1136823;-73
2023/03/15 16:48:41;;;;;;;47.60;24.43;;;;;;;5.61;100.00;100672.22;5038934;56;1138718;-74
2023/03/15 16:53:47;;;;;;;14.47;7.57;;;;;;;5.52;100.00;100679.72;5074814;56;1140910;-78
2023/03/15 16:58:53;;;;;;;27.10;15.35;;;;;;;5.40;100.00;100684.32;5101907;56;1138864;-76
2023/03/15 17:04:01;;;;;;;35.67;17.53;;;;;;;5.34;100.00;100687.30;5016145;56;1141021;-75
2023/03/15 17:09:11;;;;;;;37.27;17.13;;;;;;;5.27;100.00;100699.41;4999127;57;1141058;-78
2023/03/15 17:14:22;;;;;;;33.50;16.20;;;;;;;5.17;100.00;100707.38;5008529;56;1141043;-74
2023/03/15 17:19:28;;;;;;;20.27;6.93;;;;;;;5.05;100.00;100714.55;5078493;56;1140937;-78
2023/03/15 17:24:34;;;;;;;16.23;5.97;;;;;;;4.91;100.00;100724.89;5092685;56;1138892;-81
2023/03/15 17:29:41;;;;;;;59.53;21.55;;;;;;;4.79;100.00;100732.92;5103284;56;1138690;-78
2023/03/15 17:34:46;;;;;;;80.87;30.10;;;;;;;4.78;100.00;100727.75;4952953;57;1141028;-74
2023/03/15 17:39:52;;;;;;;81.32;31.27;;;;;;;4.82;100.00;100734.08;5096968;56;1140969;-75
2023/03/15 17:44:59;;;;;;;28.80;9.27;;;;;;;4.80;100.00;100744.25;5092656;56;1140788;-77
2023/03/15 17:50:06;;;;;;;17.82;4.33;;;;;;;4.68;100.00;100751.42;5117252;56;1138810;-77
2023/03/15 17:55:18;;;;;;;17.47;5.30;;;;;;;4.51;100.00;100754.86;5097552;56;1138700;-75
2023/03/15 18:00:24;;;;;;;30.50;14.10;;;;;;;4.47;100.00;100762.02;4990174;57;1140937;-79
2023/03/15 18:05:31;;;;;;;38.67;18.07;;;;;;;4.48;100.00;100761.55;5063248;56;1140759;-76
2023/03/15 18:10:47;;;;;;;79.20;33.43;;;;;;;4.56;100.00;100773.83;5037653;56;1140717;-76
2023/03/15 18:15:48;;;;;;;128.60;49.50;;;;;;;4.52;100.00;100778.82;5011846;56;1141017;-75
2023/03/15 18:20:55;;;;;;;106.22;46.10;;;;;;;4.47;100.00;100786.04;5050071;56;1143055;-78
2023/03/15 18:26:01;;;;;;;123.30;48.97;;;;;;;4.36;100.00;100789.64;5115421;56;1143062;-72
2023/03/15 18:31:15;;;;;;;115.40;45.93;;;;;;;4.26;100.00;100802.33;4978969;56;1142999;-77
2023/03/15 18:36:22;;;;;;;151.43;64.43;;;;;;;4.12;100.00;100802.13;4991266;56;1143206;-76
2023/03/15 18:41:28;;;;;;;213.72;83.80;;;;;;;3.89;100.00;100826.72;4822260;58;1143183;-76
2023/03/15 18:46:33;;;;;;;98.87;40.27;;;;;;;3.58;100.00;100831.16;4927780;58;1143000;-78
2023/03/15 18:51:40;;;;;;;94.83;37.00;;;;;;;3.63;100.00;100825.27;4896055;57;1140951;-86
2023/03/15 18:56:46;;;;;;;91.33;34.27;;;;;;;3.72;100.00;100825.31;4874694;58;1140800;-75
2023/03/15 19:01:51;;;;;;;81.63;30.53;;;;;;;3.81;100.00;100827.08;4951071;57;1140857;-81
2023/03/15 19:06:57;;;;;;;89.07;37.53;;;;;;;3.84;100.00;100834.77;4895919;58;1140912;-81
2023/03/15 19:12:03;;;;;;;103.30;43.33;;;;;;;3.78;100.00;100836.37;4899306;58;1140967;-72
2023/03/15 19:17:09;;;;;;;145.83;68.47;;;;;;;3.84;100.00;100842.61;4994207;57;1143086;-80
2023/03/15 19:22:15;;;;;;;163.28;71.97;;;;;;;3.91;100.00;100844.52;4928295;57;1142966;-79
2023/03/15 19:27:21;;;;;;;106.82;52.90;;;;;;;3.86;100.00;100852.56;4839210;58;1142937;-73
2023/03/15 19:32:28;;;;;;;117.37;50.07;;;;;;;3.80;100.00;100849.38;5004279;56;1143036;-75
2023/03/15 19:37:34;;;;;;;108.97;48.93;;;;;;;3.74;100.00;100851.80;5066044;56;1142964;-87
2023/03/15 19:42:40;;;;;;;103.53;42.93;;;;;;;3.65;100.00;100853.98;5066126;56;1142910;-82
2023/03/15 19:47:46;;;;;;;137.77;57.47;;;;;;;3.51;100.00;100851.97;5074271;56;1143331;-79
2023/03/15 19:52:52;;;;;;;201.27;86.00;;;;;;;3.40;100.00;100850.25;5054671;56;1143139;-80
2023/03/15 19:57:57;;;;;;;174.33;70.30;;;;;;;3.39;100.00;100855.08;5054875;56;1143215;-72
2023/03/15 20:03:03;;;;;;;132.00;51.43;;;;;;;3.35;100.00;100861.38;5040928;56;1143238;-78
2023/03/15 20:08:09;;;;;;;93.57;39.83;;;;;;;3.28;100.00;100862.53;5019366;56;1143217;-78
2023/03/15 20:13:15;;;;;;;200.38;84.45;;;;;;;3.22;100.00;100869.31;5002578;56;1141124;-79
2023/03/15 20:18:21;;;;;;;166.37;60.70;;;;;;;3.12;100.00;100876.70;4990402;56;1143272;-81
2023/03/15 20:23:27;;;;;;;345.60;123.83;;;;;;;3.14;100.00;100884.87;5007436;57;1143419;-83
2023/03/15 20:28:33;;;;;;;216.67;79.73;;;;;;;3.15;100.00;100885.72;5010496;57;1145082;-77
2023/03/15 20:33:39;;;;;;;134.47;47.20;;;;;;;2.87;100.00;100895.59;5008977;57;1142924;-80
2023/03/15 20:38:46;;;;;;;172.13;52.83;;;;;;;2.59;100.00;100895.38;5046360;57;1142951;-75
2023/03/15 20:43:52;;;;;;;137.57;49.05;;;;;;;2.40;100.00;100896.98;5028012;57;1142849;-80
2023/03/15 20:48:58;;;;;;;103.35;37.50;;;;;;;2.29;100.00;100899.98;5001571;57;1143124;-78
2023/03/15 20:54:04;;;;;;;201.03;87.50;;;;;;;2.29;100.00;100904.38;5014390;57;1143170;-79
2023/03/15 20:59:10;;;;;;;160.03;54.83;;;;;;;2.34;100.00;100915.02;5012673;56;1143006;-69
2023/03/15 21:04:16;;;;;;;126.42;43.52;;;;;;;2.36;100.00;100914.52;5136557;55;1143054;-71
2023/03/15 21:09:23;;;;;;;141.40;54.60;;;;;;;2.33;100.00;100918.98;5089475;56;1143021;-68
2023/03/15 21:14:31;;;;;;;123.33;49.53;;;;;;;2.28;100.00;100919.63;5064351;56;1142938;-66
2023/03/15 21:19:37;;;;;;;103.93;39.27;;;;;;;2.26;100.00;100921.45;5084558;56;1143010;-67
2023/03/15 21:24:43;;;;;;;85.50;33.17;;;;;;;2.23;100.00;100928.08;4960046;57;1143211;-73
2023/03/15 21:29:48;;;;;;;75.87;32.50;;;;;;;2.19;100.00;100935.16;5105736;55;1140756;-71
2023/03/15 21:34:54;;;;;;;96.13;30.60;;;;;;;2.22;100.00;100931.59;4984255;57;1140974;-72
2023/03/15 21:40:00;;;;;;;109.47;38.90;;;;;;;2.22;100.00;100938.11;5050035;56;1140834;-70
2023/03/15 21:45:07;;;;;;;184.90;63.60;;;;;;;2.19;100.00;100948.20;5003501;57;1143107;-71
2023/03/15 21:50:13;;;;;;;116.50;44.40;;;;;;;2.03;100.00;100954.88;4984274;57;1142870;-73
2023/03/15 21:55:18;;;;;;;63.00;26.45;;;;;;;1.99;100.00;100952.82;4984077;57;1143200;-68
2023/03/15 22:00:25;;;;;;;72.80;28.35;;;;;;;1.99;100.00;100948.91;4992581;56;1140968;-75
2023/03/15 22:05:32;;;;;;;44.37;18.33;;;;;;;1.87;100.00;100959.78;5031542;57;1140837;-73
2023/03/15 22:10:38;;;;;;;41.23;18.30;;;;;;;1.70;100.00;100961.66;5043816;56;1140807;-73
2023/03/15 22:15:44;;;;;;;30.32;12.43;;;;;;;1.58;100.00;100966.44;5066833;56;1140762;-67
2023/03/15 22:20:51;;;;;;;30.10;12.00;;;;;;;1.48;100.00;100969.81;5054358;56;1140878;-68
2023/03/15 22:25:57;;;;;;;35.20;14.00;;;;;;;1.38;100.00;100981.42;4984354;56;1140831;-74
2023/03/15 22:31:03;;;;;;;32.77;13.67;;;;;;;1.39;100.00;100981.38;4985051;56;1140734;-73
2023/03/15 22:36:09;;;;;;;35.20;14.45;;;;;;;1.52;100.00;100973.18;5004101;56;1140750;-71
2023/03/15 22:41:14;;;;;;;30.10;13.30;;;;;;;1.63;100.00;100975.82;5020818;56;1148612;-74
2023/03/15 22:46:21;;;;;;;30.93;13.17;;;;;;;1.72;100.00;100977.25;5012428;57;1140954;-71
2023/03/15 22:51:27;;;;;;;27.80;14.53;;;;;;;1.76;100.00;100979.72;4953900;57;1141035;-70
2023/03/15 22:56:34;;;;;;;37.70;13.77;;;;;;;1.74;100.00;100980.67;4990673;57;1140906;-69
2023/03/15 23:01:39;;;;;;;28.93;12.70;;;;;;;1.67;100.00;100982.64;4980735;56;1140989;-70
2023/03/15 23:06:45;;;;;;;35.20;13.13;;;;;;;1.48;100.00;100995.88;5032823;56;1141002;-72
2023/03/15 23:11:51;;;;;;;36.20;14.20;;;;;;;1.40;100.00;100999.17;5016372;57;1140859;-71